map of MVY home
MVY - Airport
Location
City:  Vineyard Haven, Massachusetts, United States
Name:Martha's Vineyard Airport
ICAO:KMVY
IATA:MVY
FAA LID:MVY

Details
Type:Airport (Part 139 Class I)
Use:Public/Civil
Latitude:4123'36"N (41.393422)
Longitude:7036'50"W (-70.613883)
Datum:WGS 1984
Elevation:66 ft (20 m)
Variation:14.54W (WMM2015 magnetic declination)
0.06 annual change
Runways:2
Longest:5504 × 100 ft (1678 × 30.5 m), paved

Time
Time Zone:UTC-5 (DST-4)
Local Time:

Weather
METAR:KMVY 160653Z AUTO 30019G27KT 8SM -RA SCT012 BKN040 OVC055 14/13 A2983 RMK AO2 PK WND 24034/0609 WSHFT 0607 RAB06 SLP103 P0009 T01440133

Related Locations
Nearby:
Farthest:YAUG: 11853 mi / 19076 km
Augusta [Augusta Airport], WA, AU

Find:

   beyond  
but within

Other Information
Maps:
Delays:
NOTAMs:
Links:
Sources:

  
  • flag of United States
  • flag of Massachusetts
  

Airport Diagram

Airport diagram for MVY

Airport diagram PDF

Sectional Chart

Flight Planning
at skyvector.com

Satellite Image

Google Maps Satellite view

 

Copyright © 2004-2018 Karl L. Swartz. All rights reserved.
The Great Circle Mapper name and logo are trademarks of the Great Circle Mapper.
All other trademarks mentioned herein belong to their respective owners.
Please see credits for attibutions and further copyright information.

  Follow gcmap on Facebook Follow gcmap on Twitter Follow gcmap on Google+ GCmap on LinkedIn

hCard Microformat

Geo Microformat